Time;durP1;ratioP1;P1;durP2;ratioP2;P2;SDS_P1;SDS_P2;PMS_P1;PMS_P2;Temp;Humidity;BMP_temperature;BMP_pressure;BME280_temperature;BME280_humidity;BME280_pressure;Samples;Min_cycle;Max_cycle;Signal;HPM_P1;HPM_P2
2021/12/14 00:01:24;;;;;;;39.67;19.45;;;;;;;4.24;85.88;101545.19;5052780;28;20028;-54
2021/12/14 00:03:56;;;;;;;47.33;24.73;;;;;;;4.26;85.96;101548.69;5052774;28;20029;-50
2021/12/14 00:06:23;;;;;;;69.18;35.05;;;;;;;4.27;85.89;101541.78;5052819;28;20029;-51
2021/12/14 00:08:58;;;;;;;41.10;21.75;;;;;;;4.29;85.84;101551.38;5035854;28;20464;-53
2021/12/14 00:14:13;;;;;;;43.40;23.25;;;;;;;4.22;86.08;101541.66;5053964;28;20436;-52
2021/12/14 00:16:41;;;;;;;44.10;23.17;;;;;;;4.18;86.12;101537.25;5054150;28;20045;-51
2021/12/14 00:19:07;;;;;;;40.72;23.15;;;;;;;4.17;86.31;101541.56;5051665;28;20024;-53
2021/12/14 00:21:32;;;;;;;39.47;21.92;;;;;;;4.22;86.34;101538.19;5053849;28;20037;-51
2021/12/14 00:24:14;;;;;;;59.13;33.35;;;;;;;4.19;86.22;101547.72;5052176;28;20045;-50
2021/12/14 00:26:44;;;;;;;52.03;28.40;;;;;;;4.21;86.12;101542.53;5053723;28;20078;-54
2021/12/14 00:29:16;;;;;;;37.20;20.50;;;;;;;4.24;86.28;101545.19;5052366;28;20052;-53
2021/12/14 00:31:42;;;;;;;38.85;21.15;;;;;;;4.26;86.14;101542.63;5052256;28;20033;-54
2021/12/14 00:34:08;;;;;;;56.83;31.27;;;;;;;4.26;86.14;101550.44;5053282;28;20115;-53
2021/12/14 00:36:37;;;;;;;48.33;24.77;;;;;;;4.15;86.97;101543.28;5053972;28;20128;-51
2021/12/14 00:39:06;;;;;;;39.45;21.80;;;;;;;4.20;86.81;101543.38;5052234;28;20433;-51
2021/12/14 00:41:35;;;;;;;40.90;24.85;;;;;;;4.17;86.93;101546.78;5052242;28;20025;-50
2021/12/14 00:44:02;;;;;;;42.40;22.90;;;;;;;4.16;86.85;101541.56;5052112;28;20063;-53
2021/12/14 00:46:27;;;;;;;43.88;23.60;;;;;;;4.17;86.91;101536.38;5051937;28;20040;-53
2021/12/14 00:48:53;;;;;;;35.10;20.33;;;;;;;4.16;86.96;101539.81;5053494;28;20385;-53
2021/12/14 00:51:22;;;;;;;46.20;25.80;;;;;;;4.10;87.36;101539.66;5052152;28;20029;-51
2021/12/14 00:53:49;;;;;;;37.05;20.10;;;;;;;4.12;87.43;101545.81;5052287;28;20033;-52
2021/12/14 00:56:15;;;;;;;33.05;18.10;;;;;;;4.16;87.20;101538.94;5052039;28;20041;-50
2021/12/14 00:58:41;;;;;;;41.60;22.95;;;;;;;4.09;87.48;101540.53;5053224;28;20029;-49
2021/12/14 01:01:13;;;;;;;40.47;24.30;;;;;;;4.08;87.51;101545.69;5052810;28;20037;-51
2021/12/14 01:03:42;;;;;;;55.45;28.95;;;;;;;4.10;87.29;101539.66;5054621;28;20032;-51
2021/12/14 01:06:11;;;;;;;51.25;28.48;;;;;;;4.07;87.64;101529.22;5053132;28;20061;-49
2021/12/14 01:08:40;;;;;;;78.10;46.97;;;;;;;4.03;88.22;101537.78;5051766;28;20044;-53
2021/12/14 01:11:16;;;;;;;50.03;29.75;;;;;;;4.06;88.05;101532.63;5052236;28;20064;-50
2021/12/14 01:13:54;;;;;;;57.30;33.67;;;;;;;3.96;88.65;101535.88;5052866;28;20037;-52
2021/12/14 01:16:37;;;;;;;47.80;26.60;;;;;;;4.00;88.39;101532.50;5051770;28;20457;-49
2021/12/14 01:19:21;;;;;;;;;;;;;;;4.01;88.43;101529.06;5053491;28;20037;-51
2021/12/14 01:24:42;;;;;;;31.85;19.55;;;;;;;4.04;87.76;101523.94;5053221;28;20043;-50
2021/12/14 01:27:14;;;;;;;28.17;16.60;;;;;;;4.09;87.65;101516.22;5052771;28;20124;-53
2021/12/14 01:29:42;;;;;;;40.05;24.30;;;;;;;4.06;87.74;101518.75;5053534;28;20036;-51
2021/12/14 01:32:09;;;;;;;31.95;19.08;;;;;;;4.09;87.91;101521.44;5055268;28;20072;-50
2021/12/14 01:34:36;;;;;;;27.42;15.93;;;;;;;4.11;87.85;101517.13;5055350;28;20041;-51
2021/12/14 01:37:07;;;;;;;31.83;17.65;;;;;;;4.08;88.50;101515.34;5055410;28;20033;-51
2021/12/14 01:42:14;;;;;;;32.45;17.55;;;;;;;4.15;87.69;101511.19;5055430;28;20032;-50
2021/12/14 01:44:59;;;;;;;27.75;16.83;;;;;;;4.16;87.64;101508.59;5052409;28;20033;-50
2021/12/14 01:47:36;;;;;;;29.08;16.33;;;;;;;4.22;87.13;101509.56;5036310;28;20060;-50
2021/12/14 01:50:06;;;;;;;27.48;16.17;;;;;;;4.19;87.34;101502.59;5047153;28;20063;-52
2021/12/14 01:52:33;;;;;;;34.35;22.23;;;;;;;4.19;87.40;101498.28;5044368;28;20033;-49
2021/12/14 01:55:05;;;;;;;32.28;20.10;;;;;;;4.22;87.17;101496.56;5040197;28;20029;-48
2021/12/14 01:57:31;;;;;;;26.10;14.23;;;;;;;4.25;87.08;101507.06;5034880;28;20041;-51
2021/12/14 01:59:58;;;;;;;24.58;14.43;;;;;;;4.24;87.19;101500.97;5056441;28;20083;-50
2021/12/14 02:02:41;;;;;;;34.85;22.42;;;;;;;4.22;87.20;101501.78;5046878;28;20030;-51
2021/12/14 02:05:14;;;;;;;30.38;18.23;;;;;;;4.16;87.98;101506.00;5035553;28;20029;-52
2021/12/14 02:07:40;;;;;;;25.80;15.52;;;;;;;4.20;87.79;101500.03;5036470;28;20048;-51
2021/12/14 02:10:11;;;;;;;31.45;19.10;;;;;;;4.22;87.74;101500.03;5026639;28;20045;-50
2021/12/14 02:12:41;;;;;;;23.35;14.25;;;;;;;4.24;87.59;101495.78;5051886;28;20021;-52
2021/12/14 02:15:20;;;;;;;26.23;15.82;;;;;;;4.23;87.60;101491.41;5055442;28;20039;-50
2021/12/14 02:17:46;;;;;;;29.63;17.73;;;;;;;4.27;87.56;101487.13;5037856;28;20033;-49
2021/12/14 02:20:15;;;;;;;31.50;18.90;;;;;;;4.26;87.58;101480.19;5034967;28;20563;-49
2021/12/14 02:22:41;;;;;;;38.55;24.17;;;;;;;4.28;87.51;101473.31;5041197;28;20392;-49
2021/12/14 02:25:07;;;;;;;25.48;14.50;;;;;;;4.27;87.68;101468.91;5047343;28;20040;-49
2021/12/14 02:27:39;;;;;;;25.67;15.90;;;;;;;4.22;88.27;101471.44;5046994;28;20409;-52
2021/12/14 02:30:10;;;;;;;30.30;17.70;;;;;;;4.18;88.32;101465.28;5037409;28;20041;-49
2021/12/14 02:32:35;;;;;;;22.23;13.57;;;;;;;4.22;88.13;101473.16;5047418;28;20029;-49
2021/12/14 02:35:06;;;;;;;22.48;13.10;;;;;;;4.23;88.10;101480.09;5032612;28;20034;-49
2021/12/14 02:37:52;;;;;;;27.85;17.10;;;;;;;4.23;88.05;101469.69;5033350;28;20033;-49
2021/12/14 02:40:32;;;;;;;25.23;13.88;;;;;;;4.25;87.96;101468.03;5034890;28;20033;-51
2021/12/14 02:43:02;;;;;;;21.95;12.80;;;;;;;4.31;87.46;101463.84;5034396;28;20036;-50
2021/12/14 02:45:27;;;;;;;20.98;11.73;;;;;;;4.35;87.41;101459.56;5034064;28;20095;-50
2021/12/14 02:47:55;;;;;;;25.05;14.25;;;;;;;4.40;87.04;101463.16;5035977;28;20438;-49
2021/12/14 02:50:23;;;;;;;22.27;13.30;;;;;;;4.37;86.97;101452.66;5041337;28;20040;-49
2021/12/14 02:52:48;;;;;;;24.85;14.52;;;;;;;4.37;87.06;101465.69;5033337;28;20029;-50
2021/12/14 02:55:20;;;;;;;24.58;14.43;;;;;;;4.37;87.01;101455.28;5034509;28;20037;-53
2021/12/14 02:57:49;;;;;;;36.50;22.25;;;;;;;4.39;86.84;101453.59;5033730;28;20041;-51
2021/12/14 03:00:28;;;;;;;26.50;15.52;;;;;;;4.41;86.48;101447.56;5035139;28;20037;-51
2021/12/14 03:02:56;;;;;;;21.80;12.60;;;;;;;4.40;86.58;101434.53;5046351;28;20041;-52
2021/12/14 03:05:26;;;;;;;23.98;13.45;;;;;;;4.38;86.97;101437.06;5035544;28;20037;-51
2021/12/14 03:07:56;;;;;;;22.30;12.70;;;;;;;4.36;86.84;101430.97;5043843;28;20043;-50
2021/12/14 03:10:50;;;;;;;25.55;13.95;;;;;;;4.39;86.98;101430.19;5048903;28;20045;-52
2021/12/14 03:13:15;;;;;;;22.23;12.30;;;;;;;4.42;87.06;101425.88;5034918;28;20060;-52
2021/12/14 03:15:48;;;;;;;21.63;12.35;;;;;;;4.47;86.69;101427.69;5034356;28;20489;-52
2021/12/14 03:18:21;;;;;;;25.58;14.77;;;;;;;4.49;86.63;101432.09;5052592;28;20060;-52
2021/12/14 03:20:57;;;;;;;21.25;12.35;;;;;;;4.44;86.70;101432.00;5053319;28;20040;-53
2021/12/14 03:23:39;;;;;;;26.50;15.38;;;;;;;4.49;86.57;101431.22;5044801;28;20030;-49
2021/12/14 03:26:08;;;;;;;25.15;13.80;;;;;;;4.44;86.67;101428.53;5042908;28;20069;-50
2021/12/14 03:28:35;;;;;;;19.98;11.93;;;;;;;4.41;86.99;101424.13;5034662;28;20087;-51
2021/12/14 03:31:10;;;;;;;22.50;12.77;;;;;;;4.39;87.22;101427.56;5021695;28;20037;-52
2021/12/14 03:33:41;;;;;;;26.15;13.63;;;;;;;4.38;87.35;101425.78;5034497;28;20029;-50
2021/12/14 03:36:11;;;;;;;22.25;12.48;;;;;;;4.32;87.67;101426.56;5034333;28;20094;-50
2021/12/14 03:38:42;;;;;;;26.15;13.57;;;;;;;4.33;87.71;101425.72;5032952;28;20104;-50
2021/12/14 03:41:16;;;;;;;23.63;13.82;;;;;;;4.35;87.73;101416.22;5033107;28;20038;-50
2021/12/14 03:43:51;;;;;;;21.85;12.27;;;;;;;4.34;87.62;101410.97;5048652;28;20106;-51
2021/12/14 03:46:16;;;;;;;22.77;13.05;;;;;;;4.32;87.75;101407.47;5032769;28;20057;-51
2021/12/14 03:48:42;;;;;;;24.27;13.85;;;;;;;4.40;87.39;101405.91;5034376;28;20091;-50
2021/12/14 03:51:08;;;;;;;24.48;13.55;;;;;;;4.38;87.51;101404.97;5039250;28;20465;-52
2021/12/14 03:53:34;;;;;;;20.95;12.20;;;;;;;4.34;87.58;101392.75;5052865;28;20040;-50
2021/12/14 03:56:04;;;;;;;29.83;16.15;;;;;;;4.38;87.51;101404.97;5037747;28;20037;-49
2021/12/14 03:58:36;;;;;;;23.60;13.07;;;;;;;4.36;88.36;101399.75;5032879;28;20036;-49
2021/12/14 04:01:20;;;;;;;20.48;11.82;;;;;;;4.38;88.25;101394.56;5033054;28;20128;-49
2021/12/14 04:03:49;;;;;;;22.45;12.52;;;;;;;4.40;88.18;101387.69;5034100;28;20045;-50
2021/12/14 04:06:15;;;;;;;20.95;11.52;;;;;;;4.43;88.19;101383.41;5028778;28;20512;-51
2021/12/14 04:08:43;;;;;;;23.42;12.63;;;;;;;4.43;88.34;101385.16;5018417;28;20091;-50
2021/12/14 04:11:10;;;;;;;22.88;12.43;;;;;;;4.45;88.18;101380.84;5016310;28;20113;-50
2021/12/14 04:13:39;;;;;;;23.17;13.48;;;;;;;4.47;88.41;101389.56;5033719;28;20057;-51
2021/12/14 04:16:08;;;;;;;26.02;13.00;;;;;;;4.47;88.47;101388.66;5045614;28;20480;-50
2021/12/14 04:18:34;;;;;;;21.17;11.95;;;;;;;4.44;88.70;101385.16;5038257;28;20033;-50
2021/12/14 04:21:00;;;;;;;21.38;13.05;;;;;;;4.42;88.90;101378.16;5034144;28;20358;-50
2021/12/14 04:23:30;;;;;;;35.97;16.08;;;;;;;4.38;89.82;101387.63;5052073;28;20039;-51
2021/12/14 04:25:59;;;;;;;27.15;14.52;;;;;;;4.42;89.23;101385.97;5047599;28;20488;-52
2021/12/14 04:28:30;;;;;;;29.92;14.00;;;;;;;4.36;90.45;101388.47;5046128;28;20102;-50
2021/12/14 04:30:55;;;;;;;46.47;16.80;;;;;;;4.36;90.52;101385.88;5052239;28;20556;-53
2021/12/14 04:33:30;;;;;;;35.10;14.38;;;;;;;4.38;90.24;101385.03;5044297;28;20136;-51
2021/12/14 04:35:56;;;;;;;36.70;15.20;;;;;;;4.32;90.63;101390.13;5033331;28;20037;-53
2021/12/14 04:38:31;;;;;;;25.20;12.80;;;;;;;4.30;90.66;101377.94;5032702;28;20037;-49
2021/12/14 04:52:23;;;;;;;28.13;13.55;;;;;;;4.47;89.74;101366.16;5011362;28;20410;-52
2021/12/14 04:54:53;;;;;;;31.63;14.10;;;;;;;4.48;89.54;101359.22;5030614;28;20044;-52
2021/12/14 04:57:25;;;;;;;25.05;14.27;;;;;;;4.47;89.46;101366.16;5052108;28;20461;-51
2021/12/14 04:59:54;;;;;;;19.92;11.40;;;;;;;4.52;89.17;101361.03;5047460;28;20108;-51
2021/12/14 05:02:25;;;;;;;24.88;14.48;;;;;;;4.52;89.21;101361.88;5034562;28;20066;-50
2021/12/14 05:04:54;;;;;;;29.35;15.27;;;;;;;4.51;89.11;101354.94;5050437;28;20029;-50
2021/12/14 05:09:58;;;;;;;30.63;18.73;;;;;;;4.56;88.88;101358.50;5040971;28;20400;-50
2021/12/14 05:12:29;;;;;;;28.73;17.05;;;;;;;4.56;89.11;101349.81;5037326;28;20120;-50
2021/12/14 05:14:58;;;;;;;22.90;13.90;;;;;;;4.52;88.90;101356.69;5036807;28;20147;-51
2021/12/14 05:17:32;;;;;;;24.63;13.77;;;;;;;4.51;89.19;101343.63;5038859;28;20440;-49
2021/12/14 05:19:59;;;;;;;24.98;15.85;;;;;;;4.51;89.27;101357.53;5048370;28;20029;-53
2021/12/14 05:22:28;;;;;;;29.20;17.73;;;;;;;4.52;88.87;101351.47;5035740;28;20041;-53
2021/12/14 05:25:03;;;;;;;30.42;17.85;;;;;;;4.51;88.97;101349.72;5035722;28;20039;-53
2021/12/14 05:27:45;;;;;;;27.73;16.58;;;;;;;4.53;88.69;101350.63;5043294;28;20099;-51
2021/12/14 05:30:30;;;;;;;21.90;13.35;;;;;;;4.55;88.78;101341.13;5051401;28;20025;-51
2021/12/14 05:33:08;;;;;;;22.27;13.60;;;;;;;4.57;88.58;101344.63;5035404;28;20037;-52
2021/12/14 05:35:37;;;;;;;23.13;13.98;;;;;;;4.63;89.83;101339.53;5036985;28;20034;-51
2021/12/14 05:38:04;;;;;;;25.67;13.40;;;;;;;4.81;88.61;101341.56;5036469;28;20115;-52
2021/12/14 05:43:07;;;;;;;30.33;18.90;;;;;;;4.82;87.56;101332.03;5036454;28;20091;-54
2021/12/14 05:45:45;;;;;;;24.40;15.05;;;;;;;4.77;87.49;101336.28;5035652;28;20443;-50
2021/12/14 05:48:17;;;;;;;31.90;19.23;;;;;;;4.70;87.99;101333.56;5036219;28;20072;-50
2021/12/14 05:50:45;;;;;;;33.78;21.23;;;;;;;4.66;88.02;101333.50;5046405;28;20033;-52
2021/12/14 05:53:26;;;;;;;39.72;18.90;;;;;;;4.68;88.08;101332.69;5055122;28;20029;-52
2021/12/14 05:55:53;;;;;;;30.02;15.45;;;;;;;4.61;88.39;101325.59;5056050;28;20078;-50
2021/12/14 05:58:20;;;;;;;36.28;18.10;;;;;;;4.63;88.29;101323.91;5054935;28;20099;-53
2021/12/14 06:00:51;;;;;;;39.75;19.75;;;;;;;4.60;88.54;101323.00;5038868;28;20037;-50
2021/12/14 06:03:25;;;;;;;30.75;18.98;;;;;;;4.63;88.40;101325.66;5035004;28;20388;-49
2021/12/14 06:05:52;;;;;;;30.88;18.48;;;;;;;4.62;88.63;101321.28;5036556;28;20036;-50
2021/12/14 06:08:28;;;;;;;34.95;21.33;;;;;;;4.54;88.69;101308.13;5035362;28;20037;-51
2021/12/14 06:10:55;;;;;;;32.20;18.65;;;;;;;4.60;88.66;101318.66;5034759;28;20037;-50
2021/12/14 06:13:21;;;;;;;38.80;20.83;;;;;;;4.54;89.04;101323.75;5028438;28;20124;-50
2021/12/14 06:15:47;;;;;;;31.95;18.52;;;;;;;4.54;88.93;101321.13;5054443;28;20029;-51
2021/12/14 06:18:22;;;;;;;27.08;15.55;;;;;;;4.57;88.68;101325.53;5048438;28;20387;-51
2021/12/14 06:20:47;;;;;;;22.85;14.13;;;;;;;4.56;89.08;101315.97;5038229;28;20523;-51
2021/12/14 06:23:13;;;;;;;28.45;15.55;;;;;;;4.50;89.33;101311.53;5051137;28;20120;-49
2021/12/14 06:25:39;;;;;;;26.08;15.07;;;;;;;4.55;88.82;101311.59;5050105;28;20048;-51
2021/12/14 06:28:05;;;;;;;40.13;21.17;;;;;;;4.55;88.99;101325.50;5048135;28;20053;-50
2021/12/14 06:30:35;;;;;;;58.38;31.33;;;;;;;4.53;89.23;101324.59;5042406;28;20041;-49
2021/12/14 06:33:08;;;;;;;37.63;24.05;;;;;;;4.47;89.76;101327.09;5034809;28;20458;-52
2021/12/14 06:35:41;;;;;;;33.55;17.92;;;;;;;4.41;90.12;101321.78;5051026;28;20041;-49
2021/12/14 06:40:54;;;;;;;30.50;17.33;;;;;;;4.40;90.13;101336.50;5054400;28;20098;-49
2021/12/14 06:43:30;;;;;;;34.55;17.83;;;;;;;4.33;90.63;101333.75;5042527;28;20033;-49
2021/12/14 06:46:05;;;;;;;27.27;16.58;;;;;;;4.39;90.61;101344.31;5041397;28;20044;-55
2021/12/14 06:48:43;;;;;;;27.45;15.30;;;;;;;4.44;90.28;101337.44;5042596;28;20047;-50
2021/12/14 06:51:23;;;;;;;41.08;18.25;;;;;;;4.47;89.82;101327.09;5047982;28;20028;-49
2021/12/14 06:53:54;;;;;;;36.40;19.52;;;;;;;4.49;89.57;101340.13;5052463;28;20171;-48
2021/12/14 06:56:23;;;;;;;33.13;18.50;;;;;;;4.51;89.47;101328.00;5038011;28;20061;-50
2021/12/14 06:58:54;;;;;;;25.73;14.80;;;;;;;4.61;93.10;101341.22;5037624;28;20029;-49
2021/12/14 07:01:31;;;;;;;30.25;17.10;;;;;;;4.74;89.91;101344.03;5034788;28;20120;-50
2021/12/14 07:04:11;;;;;;;33.42;18.05;;;;;;;4.79;88.76;101342.38;5038550;28;20025;-50
2021/12/14 07:06:44;;;;;;;27.45;15.95;;;;;;;4.83;90.21;101339.03;5044159;28;20082;-48
2021/12/14 07:09:12;;;;;;;28.35;15.27;;;;;;;4.91;88.54;101340.91;5046134;28;20029;-50
2021/12/14 07:11:56;;;;;;;22.52;14.18;;;;;;;4.91;87.92;101342.63;5046863;28;20030;-49
2021/12/14 07:14:38;;;;;;;37.17;19.17;;;;;;;4.86;87.72;101334.72;5041401;28;20469;-49
2021/12/14 07:17:19;;;;;;;26.50;14.88;;;;;;;4.89;87.68;101341.72;5037473;28;20547;-48
2021/12/14 07:19:55;;;;;;;31.73;17.13;;;;;;;4.86;87.53;101333.84;5043662;28;20048;-52
2021/12/14 07:22:29;;;;;;;25.23;15.20;;;;;;;4.82;87.78;101345.06;5042643;28;20091;-52
2021/12/14 07:25:00;;;;;;;28.73;17.13;;;;;;;4.81;87.84;101344.19;5046122;28;20036;-49
2021/12/14 07:27:31;;;;;;;25.67;14.75;;;;;;;4.77;88.07;101346.72;5043316;28;20128;-53
2021/12/14 07:30:23;;;;;;;27.13;16.65;;;;;;;4.76;88.06;101338.03;5042795;28;20033;-50
2021/12/14 07:32:53;;;;;;;25.80;14.13;;;;;;;4.80;87.89;101347.66;5052123;28;20051;-51
2021/12/14 07:35:25;;;;;;;24.40;14.88;;;;;;;4.80;87.84;101338.97;5052974;28;20171;-51
2021/12/14 07:37:52;;;;;;;30.00;16.27;;;;;;;4.83;87.71;101332.06;5045682;28;20095;-53
2021/12/14 07:40:18;;;;;;;32.35;17.45;;;;;;;4.81;88.19;101346.78;5034399;28;20040;-52
2021/12/14 07:42:45;;;;;;;27.75;17.08;;;;;;;4.84;87.92;101343.38;5024770;28;20037;-53
2021/12/14 07:45:23;;;;;;;25.00;16.35;;;;;;;4.85;88.11;101335.56;5037732;28;20120;-52
2021/12/14 07:47:51;;;;;;;32.58;17.25;;;;;;;4.87;87.93;101339.09;5040854;28;20624;-53
2021/12/14 07:50:17;;;;;;;31.90;18.23;;;;;;;4.86;87.75;101347.72;5043397;28;20449;-52
2021/12/14 07:52:43;;;;;;;38.67;21.45;;;;;;;4.79;88.16;101351.09;5053391;28;20033;-50
2021/12/14 07:55:18;;;;;;;30.02;16.83;;;;;;;4.79;88.58;101345.91;5051215;28;20036;-49
2021/12/14 07:57:45;;;;;;;29.65;16.60;;;;;;;4.84;88.38;101345.97;5036462;28;20049;-50
2021/12/14 08:00:19;;;;;;;28.42;16.25;;;;;;;4.88;88.48;101339.97;5022063;28;20033;-49
2021/12/14 08:02:54;;;;;;;27.77;15.73;;;;;;;4.89;88.08;101339.97;5047488;28;20037;-50
2021/12/14 08:05:24;;;;;;;29.17;17.20;;;;;;;4.96;88.09;101338.38;5032797;28;20445;-52
2021/12/14 08:08:09;;;;;;;23.83;15.18;;;;;;;5.01;88.72;101336.69;5044237;28;20039;-51
2021/12/14 08:10:40;;;;;;;34.03;19.02;;;;;;;5.16;88.09;101336.94;5054039;28;20120;-50
2021/12/14 08:13:11;;;;;;;29.67;16.67;;;;;;;5.21;87.24;101333.53;5040410;28;20412;-49
2021/12/14 08:15:43;;;;;;;31.90;16.95;;;;;;;5.26;86.67;101340.56;5034192;28;20029;-51
2021/12/14 08:18:14;;;;;;;25.42;14.80;;;;;;;5.25;86.59;101340.53;5048362;28;20084;-53
2021/12/14 08:20:45;;;;;;;26.48;15.65;;;;;;;5.28;86.23;101332.78;5049375;28;20106;-50
2021/12/14 08:23:23;;;;;;;25.45;14.02;;;;;;;5.31;86.00;101330.22;5051583;28;20025;-52
2021/12/14 08:25:53;;;;;;;24.83;14.50;;;;;;;5.33;85.66;101333.72;5037487;28;20045;-50
2021/12/14 08:28:21;;;;;;;24.67;14.65;;;;;;;5.37;85.69;101332.91;5033626;28;20130;-50
2021/12/14 08:30:55;;;;;;;29.30;16.70;;;;;;;5.42;85.66;101334.72;5032349;28;20350;-51
2021/12/14 08:33:25;;;;;;;33.28;17.98;;;;;;;5.49;85.65;101334.81;5053973;28;20037;-53
2021/12/14 08:35:50;;;;;;;29.42;16.50;;;;;;;5.51;85.31;101335.75;5052383;28;20025;-49
2021/12/14 08:38:18;;;;;;;30.80;18.42;;;;;;;5.43;85.17;101340.84;5053708;28;20040;-50
2021/12/14 08:40:50;;;;;;;24.95;15.82;;;;;;;5.39;85.25;101339.03;5051633;28;20112;-52
2021/12/14 08:43:25;;;;;;;35.63;19.33;;;;;;;5.29;85.75;101329.31;5052231;28;20098;-54
2021/12/14 08:46:00;;;;;;;27.88;15.65;;;;;;;5.26;86.16;101335.34;5071857;28;20478;-50
2021/12/14 08:48:31;;;;;;;23.85;14.73;;;;;;;5.18;86.43;101330.00;5072498;28;20115;-51
2021/12/14 08:51:13;;;;;;;27.20;16.40;;;;;;;5.23;86.66;101334.44;5072030;28;20028;-50
2021/12/14 08:53:46;;;;;;;24.88;14.50;;;;;;;5.27;86.28;101334.53;5073467;28;20036;-52
2021/12/14 08:56:13;;;;;;;26.42;16.25;;;;;;;5.34;86.10;101330.25;5072200;28;20115;-49
2021/12/14 08:58:40;;;;;;;26.35;16.58;;;;;;;5.40;85.97;101327.75;5039609;28;20033;-52
2021/12/14 09:01:15;;;;;;;25.70;16.42;;;;;;;5.47;85.68;101326.13;5041957;28;20037;-52
2021/12/14 09:03:46;;;;;;;29.83;17.92;;;;;;;5.54;85.17;101334.03;5037992;28;20556;-51
2021/12/14 09:06:16;;;;;;;27.25;17.13;;;;;;;5.59;84.73;101340.19;5044021;28;20025;-48
2021/12/14 09:08:44;;;;;;;32.63;18.65;;;;;;;5.64;84.64;101335.91;5031958;28;21132;-49
2021/12/14 09:11:11;;;;;;;28.00;16.10;;;;;;;5.69;84.43;101334.22;5041662;28;20060;-54
2021/12/14 09:13:38;;;;;;;26.73;16.45;;;;;;;5.57;84.54;101328.84;5044095;28;20052;-51
2021/12/14 09:16:19;;;;;;;24.45;15.57;;;;;;;5.67;84.83;101335.09;5035063;28;20042;-49
2021/12/14 09:18:51;;;;;;;25.92;16.00;;;;;;;5.77;84.28;101330.84;5034145;28;20052;-52
2021/12/14 09:21:28;;;;;;;22.92;14.20;;;;;;;5.90;83.49;101340.59;5031868;28;20576;-50
2021/12/14 09:23:59;;;;;;;72.95;35.88;;;;;;;5.87;83.27;101344.06;5048206;28;20056;-49
2021/12/14 09:26:31;;;;;;;174.88;79.05;;;;;;;5.84;83.51;101336.19;5033303;28;20057;-52
2021/12/14 09:28:57;;;;;;;77.28;37.97;;;;;;;5.93;83.23;101338.94;5033441;28;20072;-49
2021/12/14 09:31:27;;;;;;;179.90;70.65;;;;;;;5.98;83.01;101335.50;5038408;28;20041;-49
2021/12/14 09:33:57;;;;;;;167.50;64.05;;;;;;;6.01;82.73;101320.75;5034541;28;20037;-48
2021/12/14 09:36:23;;;;;;;241.50;86.70;;;;;;;6.07;82.56;101318.25;5038120;28;20025;-49
2021/12/14 09:38:52;;;;;;;86.80;38.03;;;;;;;6.11;82.23;101314.81;5032882;28;20370;-49
2021/12/14 09:41:21;;;;;;;130.45;50.35;;;;;;;6.20;81.94;101310.56;5031974;28;20033;-48
2021/12/14 09:43:49;;;;;;;74.35;34.65;;;;;;;6.31;81.91;101314.16;5031971;28;20028;-53
2021/12/14 09:46:17;;;;;;;93.53;42.88;;;;;;;6.39;81.56;101310.75;5032334;28;20053;-49
2021/12/14 09:48:51;;;;;;;133.98;66.20;;;;;;;6.41;80.97;101300.31;5015336;28;20025;-52
2021/12/14 09:51:22;;;;;;;53.20;29.80;;;;;;;6.43;80.76;101303.84;5033461;28;20119;-53
2021/12/14 09:53:52;;;;;;;47.95;26.08;;;;;;;6.51;80.65;101302.19;5035255;28;20029;-48
2021/12/14 09:56:20;;;;;;;39.00;22.42;;;;;;;6.52;80.36;101297.81;5039024;28;20059;-51
2021/12/14 09:58:50;;;;;;;26.48;16.23;;;;;;;6.48;80.65;101289.09;5055414;28;20025;-51
2021/12/14 10:01:30;;;;;;;29.02;17.02;;;;;;;6.53;80.46;101289.13;5055079;28;20041;-53
2021/12/14 10:04:00;;;;;;;23.80;15.48;;;;;;;6.62;80.27;101291.81;5055062;28;20029;-53
2021/12/14 10:06:30;;;;;;;25.52;14.90;;;;;;;6.63;80.09;101285.75;5054899;28;20024;-53
2021/12/14 10:09:02;;;;;;;25.80;15.43;;;;;;;6.69;79.90;101284.91;5054791;28;20029;-52
2021/12/14 10:11:43;;;;;;;23.88;14.63;;;;;;;6.69;79.48;101279.69;5056185;28;20108;-49
2021/12/14 10:14:10;;;;;;;22.40;13.77;;;;;;;6.59;79.84;101278.75;5046217;28;20030;-51
2021/12/14 10:16:36;;;;;;;22.65;13.93;;;;;;;6.59;80.09;101282.22;5034635;28;20065;-49
2021/12/14 10:19:07;;;;;;;22.40;13.57;;;;;;;6.52;80.48;101287.38;5034745;28;20076;-53
2021/12/14 10:21:42;;;;;;;22.40;14.13;;;;;;;6.52;80.46;101283.03;5034766;28;20465;-50
2021/12/14 10:24:10;;;;;;;21.15;14.27;;;;;;;6.46;80.59;101289.91;5039386;28;20029;-52
2021/12/14 10:26:39;;;;;;;23.38;15.52;;;;;;;6.30;81.21;101289.75;5054530;28;20053;-52
2021/12/14 10:29:06;;;;;;;22.67;13.02;;;;;;;6.20;82.07;101282.72;5054432;28;20056;-52
2021/12/14 10:31:43;;;;;;;28.52;15.98;;;;;;;6.03;82.88;101285.16;5037789;28;20037;-48
2021/12/14 10:34:25;;;;;;;29.08;17.63;;;;;;;5.90;84.02;101283.19;5043215;28;20034;-49
2021/12/14 10:37:03;;;;;;;27.50;16.33;;;;;;;6.02;86.06;101282.50;5034643;28;20029;-51
2021/12/14 10:44:47;;;;;;;26.48;15.80;;;;;;;6.57;82.22;101275.22;5035570;28;20412;-50
2021/12/14 10:47:16;;;;;;;25.60;16.42;;;;;;;6.53;82.11;101276.06;5034338;28;20120;-52
2021/12/14 10:49:43;;;;;;;28.95;16.67;;;;;;;6.43;82.24;101282.94;5034293;28;20037;-51
2021/12/14 10:52:14;;;;;;;23.30;14.55;;;;;;;6.43;82.16;101276.88;5017645;28;20124;-50
2021/12/14 10:54:46;;;;;;;24.38;16.30;;;;;;;6.45;82.13;101278.59;5034070;28;20025;-52
2021/12/14 10:57:16;;;;;;;28.33;17.27;;;;;;;6.41;81.93;101269.88;5039118;28;20037;-51
2021/12/14 10:59:46;;;;;;;26.17;15.73;;;;;;;6.37;82.05;101264.59;5034064;28;20025;-52
2021/12/14 11:02:12;;;;;;;21.27;13.95;;;;;;;6.28;82.59;101277.56;5033352;28;20037;-49
2021/12/14 11:04:55;;;;;;;20.10;13.07;;;;;;;6.25;82.81;101267.97;5034659;28;20021;-53
2021/12/14 11:07:42;;;;;;;18.77;12.25;;;;;;;6.20;83.17;101260.97;5037242;28;20040;-49
2021/12/14 11:10:18;;;;;;;23.23;13.75;;;;;;;6.28;82.88;101256.69;5036956;28;20037;-51
2021/12/14 11:12:48;;;;;;;20.33;13.10;;;;;;;6.33;82.69;101257.59;5039206;28;20025;-52
2021/12/14 11:15:25;;;;;;;19.55;11.95;;;;;;;6.35;82.77;101248.94;5029385;28;20061;-52
2021/12/14 11:18:09;;;;;;;19.58;12.05;;;;;;;6.39;82.37;101237.66;5038775;28;20021;-52
2021/12/14 11:20:37;;;;;;;21.13;13.15;;;;;;;6.51;81.91;101238.66;5034881;28;20037;-48
2021/12/14 11:23:23;;;;;;;25.48;15.82;;;;;;;6.62;81.41;101239.59;5033688;28;20061;-51
2021/12/14 11:25:51;;;;;;;25.67;16.38;;;;;;;6.72;81.11;101236.19;5033776;28;20453;-49
2021/12/14 11:28:29;;;;;;;25.05;15.68;;;;;;;6.79;80.63;101224.06;5034433;28;20487;-48
2021/12/14 11:31:01;;;;;;;22.80;14.68;;;;;;;6.85;80.77;101221.47;5033565;28;20057;-51
2021/12/14 11:33:31;;;;;;;19.20;12.55;;;;;;;6.98;80.40;101210.28;5033826;28;20040;-49
2021/12/14 11:36:08;;;;;;;21.65;12.82;;;;;;;6.99;80.36;101216.38;5041841;28;21001;-50
2021/12/14 11:38:49;;;;;;;18.75;11.75;;;;;;;6.97;80.49;101218.94;5038475;28;20033;-51
2021/12/14 11:41:35;;;;;;;18.92;11.85;;;;;;;6.91;80.56;101221.53;5042287;28;20029;-50
2021/12/14 11:44:27;;;;;;;19.05;12.50;;;;;;;6.93;81.38;101226.75;5034959;28;20034;-52
2021/12/14 11:47:21;;;;;;;22.88;15.20;;;;;;;6.88;80.70;101237.19;5027946;28;20056;-52
2021/12/14 11:49:53;;;;;;;21.38;13.90;;;;;;;6.75;81.63;101243.19;5032693;28;20041;-49
2021/12/14 11:52:52;;;;;;;20.00;13.23;;;;;;;6.69;82.31;101227.47;5033996;28;20029;-50
2021/12/14 11:55:33;;;;;;;26.45;15.30;;;;;;;6.69;82.37;101227.47;5032721;28;20464;-48
2021/12/14 11:58:17;;;;;;;24.25;14.52;;;;;;;6.69;83.11;101237.91;5031491;28;20481;-51
2021/12/14 12:00:45;;;;;;;29.17;15.88;;;;;;;6.73;82.82;101234.44;5034066;28;20060;-48
2021/12/14 12:03:34;;;;;;;48.13;22.23;;;;;;;6.63;83.69;101231.78;5033684;28;20477;-52
2021/12/14 12:06:08;;;;;;;50.05;21.75;;;;;;;6.66;84.00;101218.75;5032733;28;20124;-51
2021/12/14 12:11:24;;;;;;;28.83;15.80;;;;;;;6.72;83.90;101211.81;5041905;28;20060;-49
2021/12/14 12:13:50;;;;;;;22.08;14.23;;;;;;;6.76;83.59;101209.22;5024224;28;20036;-52